Latest Weather Observations for Coldstream

IDV60901

Issued at 6:01 am EST Friday 29 May 2015 (issued every 10 minutes, with the page automatically refreshed every 10 minutes)

About weather observations | Map of Melbourne area stations | Latest observations for Melbourne area | Other Formats
Station Details ID: 086383 Name: COLDSTREAM Lat: -37.72 Lon: 145.41 Height: 83.0 m
Data from the previous 72 hours. | See also: Recent months at Coldstream
Date/Time
EST
Tmp

°C
App
Tmp
°C
Dew
Point
°C
Rel
Hum
%
Delta-T

°C
Wind Press
QNH
hPa
Press
MSL
hPa
Rain
since
9 am
mm
Dir
 
Spd
km/h
Gust
km/h
Spd
kts
Gust
kts
29/06:00am 2.8 1.1 1.9 94 0.4 CALM 0 0 0 0 1020.6 1020.7 0.2
29/05:30am 3.7 2.2 2.8 94 0.4 CALM 0 0 0 0 1020.1 1020.2 0.2
29/05:00am 4.6 3.1 2.9 89 0.7 CALM 0 0 0 0 1019.5 1019.6 0.2
29/04:30am 6.1 4.5 2.4 77 1.5 CALM 0 0 0 0 1019.5 1019.6 0.2
29/04:00am 9.7 7.3 5.1 73 2.1 NNW 7 9 4 5 1019.3 1019.4 0.2
29/03:30am 11.1 9.0 6.0 71 2.4 N 6 9 3 5 1019.3 1019.4 0.2
29/03:00am 11.3 9.3 7.2 76 2.0 N 7 11 4 6 1019.1 1019.2 0.2
29/02:30am 11.2 9.0 7.9 80 1.6 NNW 9 11 5 6 1019.0 1019.1 0.2
29/02:00am 11.1 10.4 8.7 85 1.2 NNW 2 6 1 3 1018.6 1018.7 0.2
29/01:30am 11.6 9.7 9.0 84 1.3 NW 9 13 5 7 1018.2 1018.3 0.0
29/01:00am 12.5 10.0 8.0 74 2.2 WNW 11 19 6 10 1018.0 1018.1 0.0
29/12:30am 12.9 10.4 8.4 74 2.2 WSW 11 20 6 11 1017.9 1018.0 0.0
29/12:00am 12.9 12.0 9.2 78 1.9 WNW 4 13 2 7 1017.6 1017.7 0.0
 
Date/Time
EST
Tmp

°C
App
Tmp
°C
Dew
Point
°C
Rel
Hum
%
Delta-T

°C
Wind Press
QNH
hPa
Press
MSL
hPa
Rain
since
9 am
mm
Dir
 
Spd
km/h
Gust
km/h
Spd
kts
Gust
kts
28/11:30pm 12.9 11.1 9.4 79 1.8 W 9 15 5 8 1017.3 1017.3 0.0
28/11:00pm 13.2 10.6 9.5 78 1.9 WSW 13 20 7 11 1017.2 1017.2 0.0
28/10:30pm 13.1 10.2 9.7 80 1.7 SW 15 22 8 12 1017.1 1017.1 0.0
28/10:00pm 13.8 10.6 9.8 77 2.1 WSW 17 24 9 13 1016.9 1016.9 0.0
28/09:30pm 14.9 12.4 9.7 71 2.7 W 13 20 7 11 1016.6 1016.6 0.0
28/09:00pm 15.4 12.6 11.2 76 2.3 N 17 24 9 13 1015.8 1015.8 0.0
28/08:30pm 15.4 12.1 11.0 75 2.4 N 19 28 10 15 1015.7 1015.7 0.0
28/08:00pm 15.1 11.6 10.9 76 2.2 N 20 28 11 15 1015.5 1015.5 0.0
28/07:30pm 15.1 12.9 10.9 76 2.2 N 13 24 7 13 1015.3 1015.3 0.0
28/07:00pm 14.8 11.8 10.8 77 2.1 N 17 24 9 13 1014.9 1014.9 0.0
28/06:30pm 14.9 12.2 10.5 75 2.3 N 15 22 8 12 1014.7 1014.7 0.0
28/06:00pm 15.2 11.7 10.8 75 2.3 N 20 28 11 15 1014.5 1014.5 0.0
28/05:30pm 15.5 12.2 10.9 74 2.5 NNE 19 24 10 13 1014.3 1014.3 0.0
28/05:00pm 16.1 13.5 10.8 71 2.8 N 15 20 8 11 1014.3 1014.3 0.0
28/04:30pm 17.1 14.5 10.7 66 3.4 N 15 20 8 11 1014.3 1014.3 0.0
28/04:00pm 17.6 13.7 10.9 65 3.6 N 22 32 12 17 1014.4 1014.4 0.0
28/03:30pm 18.0 14.5 10.9 63 3.8 N 20 30 11 16 1014.8 1014.8 0.0
28/03:00pm 17.3 13.4 10.9 66 3.5 N 22 32 12 17 1015.0 1015.0 0.0
28/02:30pm 18.4 13.3 10.7 61 4.2 N 28 39 15 21 1014.7 1014.7 0.0
28/02:00pm 17.8 13.0 11.6 67 3.4 N 28 46 15 25 1014.8 1014.8 0.0
28/01:59pm 17.8 12.9 11.4 66 3.5 N 28 46 15 25 1014.8 1014.8 0.0
28/01:30pm 17.1 12.2 11.2 68 3.2 N 28 39 15 21 1014.9 1014.9 0.0
28/01:00pm 17.1 12.7 11.8 71 2.9 N 26 35 14 19 1015.8 1015.8 0.0
28/12:30pm 16.3 11.3 11.0 71 2.8 N 28 41 15 22 1016.3 1016.3 0.0
28/12:06pm 16.8 11.7 10.6 67 3.3 N 28 48 15 26 1016.6 1016.6 0.0
28/12:00pm 16.6 11.1 10.7 68 3.2 N 30 44 16 24 1016.7 1016.7 0.0
28/11:30am 16.0 11.5 10.1 68 3.1 N 24 39 13 21 1017.2 1017.2 0.0
28/11:00am 16.7 12.3 10.5 67 3.3 N 24 41 13 22 1017.7 1017.8 0.0
28/10:30am 16.6 12.7 10.9 69 3.1 N 22 37 12 20 1018.1 1018.2 0.0
28/10:00am 15.3 10.6 10.5 73 2.5 N 26 41 14 22 1018.0 1018.1 0.0
28/09:30am 14.9 9.3 10.3 74 2.4 N 30 48 16 26 1017.9 1018.0 0.0
28/09:26am 14.8 9.6 10.2 74 2.4 N 28 48 15 26 1017.9 1018.0 0.0
28/09:00am 14.9 9.3 10.3 74 2.4 N 30 44 16 24 1017.8 1017.9 0.2
28/08:30am 14.8 9.7 10.6 76 2.2 N 28 43 15 23 1017.8 1017.9 0.2
28/08:00am 14.2 9.8 10.4 78 2.0 N 24 35 13 19 1017.7 1017.8 0.2
28/07:30am 13.6 9.9 10.0 79 1.9 N 20 33 11 18 1017.7 1017.8 0.2
28/07:00am 13.7 9.7 10.3 80 1.8 N 22 43 12 23 1017.3 1017.3 0.2
28/06:30am 13.5 9.5 10.3 81 1.7 N 22 33 12 18 1017.1 1017.1 0.2
28/06:00am 13.7 9.7 10.3 80 1.8 N 22 35 12 19 1017.1 1017.1 0.2
28/05:30am 13.7 10.0 10.3 80 1.8 N 20 32 11 17 1017.2 1017.2 0.2
28/05:00am 13.6 9.2 10.4 81 1.7 N 24 37 13 20 1017.2 1017.2 0.2
28/04:30am 13.2 9.2 10.4 83 1.5 N 22 33 12 18 1017.2 1017.2 0.2
28/04:00am 13.0 9.9 10.4 84 1.4 N 17 24 9 13 1017.3 1017.3 0.2
28/03:30am 12.8 8.6 9.8 82 1.5 N 22 32 12 17 1017.5 1017.6 0.2
28/03:00am 13.4 9.8 10.0 80 1.8 N 19 32 10 17 1018.1 1018.2 0.2
28/02:30am 13.0 9.7 9.6 80 1.7 N 17 26 9 14 1018.3 1018.4 0.2
28/02:00am 13.0 9.7 9.6 80 1.7 N 17 26 9 14 1018.5 1018.6 0.2
28/01:30am 13.3 10.0 9.5 78 1.9 N 17 24 9 13 1018.5 1018.6 0.2
28/01:00am 13.4 10.5 9.6 78 1.9 N 15 24 8 13 1018.6 1018.7 0.2
28/12:30am 13.3 10.4 9.5 78 1.9 N 15 24 8 13 1018.8 1018.9 0.2
28/12:00am 13.6 9.4 9.6 77 2.1 N 22 32 12 17 1019.0 1019.1 0.2
 
Date/Time
EST
Tmp

°C
App
Tmp
°C
Dew
Point
°C
Rel
Hum
%
Delta-T

°C
Wind Press
QNH
hPa
Press
MSL
hPa
Rain
since
9 am
mm
Dir
 
Spd
km/h
Gust
km/h
Spd
kts
Gust
kts
27/11:30pm 13.6 9.9 9.6 77 2.1 N 19 30 10 16 1019.3 1019.4 0.2
27/11:00pm 13.6 11.6 10.0 79 1.9 NNE 11 19 6 10 1019.4 1019.5 0.2
27/10:30pm 13.8 11.3 9.6 76 2.2 N 13 20 7 11 1019.6 1019.7 0.2
27/10:00pm 13.3 12.1 9.5 78 1.9 NNE 6 7 3 4 1019.6 1019.7 0.2
27/09:30pm 13.8 12.0 9.5 75 2.2 NNE 9 19 5 10 1019.4 1019.5 0.2
27/09:00pm 13.4 13.2 9.1 75 2.2 CALM 0 7 0 4 1019.4 1019.5 0.2
27/08:30pm 13.9 12.1 9.3 74 2.4 NNE 9 15 5 8 1019.6 1019.7 0.2
27/08:00pm 13.8 12.3 9.3 74 2.3 NE 7 13 4 7 1019.5 1019.6 0.2
27/07:30pm 13.8 11.6 9.3 74 2.3 NNE 11 17 6 9 1019.5 1019.6 0.2
27/07:00pm 13.6 11.4 9.5 76 2.1 N 11 20 6 11 1019.5 1019.6 0.2
27/06:30pm 13.4 11.9 9.3 76 2.1 N 7 13 4 7 1019.3 1019.4 0.2
27/06:00pm 14.3 12.1 9.5 73 2.5 N 11 17 6 9 1019.1 1019.2 0.2
27/05:30pm 14.7 11.1 9.7 72 2.6 N 19 28 10 15 1018.8 1018.9 0.2
27/05:00pm 14.8 10.9 9.6 71 2.7 N 20 32 11 17 1018.4 1018.5 0.2
27/04:30pm 15.8 12.0 9.7 67 3.2 N 20 33 11 18 1018.3 1018.4 0.2
27/04:00pm 16.9 13.4 10.1 64 3.6 N 19 28 10 15 1018.3 1018.4 0.2
27/03:30pm 16.9 13.1 9.8 63 3.7 N 20 30 11 16 1018.2 1018.3 0.2
27/03:00pm 17.0 12.0 9.7 62 3.8 N 26 39 14 21 1018.3 1018.4 0.2
27/02:30pm 17.4 13.7 10.3 63 3.8 N 20 32 11 17 1018.5 1018.6 0.2
27/02:00pm 16.9 13.3 10.7 67 3.3 N 20 35 11 19 1018.7 1018.8 0.2
27/01:30pm 15.2 13.5 10.0 71 2.7 NNE 9 15 5 8 1019.0 1019.1 0.2
27/01:00pm 14.3 12.6 9.7 74 2.4 NNE 9 19 5 10 1019.5 1019.6 0.2
27/12:30pm 13.8 10.5 9.6 76 2.2 NNE 17 28 9 15 1019.9 1020.0 0.2
27/12:00pm 15.1 11.6 8.6 65 3.3 N 17 24 9 13 1020.5 1020.6 0.0
27/11:30am 15.4 11.9 8.6 64 3.5 N 17 28 9 15 1021.0 1021.1 0.0
27/11:00am 15.9 12.0 8.6 62 3.7 N 19 28 10 15 1021.1 1021.2 0.0
27/10:30am 15.0 13.6 8.9 67 3.1 N 6 13 3 7 1021.3 1021.4 0.0
27/10:00am 14.6 13.1 8.3 66 3.2 N 6 11 3 6 1021.3 1021.4 0.0
27/09:30am 13.2 11.8 8.7 74 2.3 N 6 9 3 5 1021.4 1021.5 0.0
27/09:00am 12.8 11.0 8.1 73 2.3 NNE 7 11 4 6 1021.3 1021.4 0.0
27/08:30am 13.0 10.7 7.5 69 2.7 NNE 9 15 5 8 1021.4 1021.5 0.0
27/08:00am 11.9 10.0 7.6 75 2.1 N 7 11 4 6 1021.4 1021.5 0.0
27/07:30am 12.0 9.7 7.5 74 2.2 NE 9 15 5 8 1021.3 1021.4 0.0
27/07:00am 8.7 7.5 7.9 95 0.4 NNW 4 7 2 4 1021.3 1021.4 0.0
27/06:30am 8.4 6.8 7.8 96 0.3 S 6 9 3 5 1021.3 1021.4 0.0
27/06:00am 7.6 6.1 7.0 96 0.3 SSW 4 9 2 5 1021.5 1021.6 0.0
27/05:30am 6.9 5.3 6.5 97 0.2 SSE 4 9 2 5 1021.3 1021.4 0.0
27/05:00am 6.5 5.2 6.1 97 0.2 SE 2 7 1 4 1021.4 1021.5 0.0
27/04:30am 6.6 5.7 6.2 97 0.2 CALM 0 0 0 0 1021.5 1021.6 0.0
27/04:00am 6.2 5.2 5.5 95 0.3 CALM 0 0 0 0 1021.6 1021.7 0.0
27/03:30am 7.5 6.8 6.9 96 0.3 CALM 0 0 0 0 1021.8 1021.9 0.0
27/03:00am 7.7 6.7 7.3 97 0.2 SSE 2 7 1 4 1022.2 1022.3 0.0
27/02:30am 7.6 5.9 7.5 99 0.0 S 6 9 3 5 1022.5 1022.6 0.0
27/02:00am 6.7 5.5 6.6 99 0.0 SSE 2 6 1 3 1022.4 1022.5 0.0
27/01:30am 5.5 3.1 5.2 98 0.1 S 7 9 4 5 1022.7 1022.8 0.0
27/01:00am 5.8 4.8 5.7 99 0.0 CALM 0 0 0 0 1023.0 1023.1 0.0
27/12:30am 5.5 4.5 5.4 99 0.0 CALM 0 0 0 0 1023.5 1023.6 0.0
27/12:00am 4.7 3.5 4.4 98 0.1 CALM 0 0 0 0 1024.1 1024.2 0.0
 
Date/Time
EST
Tmp

°C
App
Tmp
°C
Dew
Point
°C
Rel
Hum
%
Delta-T

°C
Wind Press
QNH
hPa
Press
MSL
hPa
Rain
since
9 am
mm
Dir
 
Spd
km/h
Gust
km/h
Spd
kts
Gust
kts
26/11:30pm 5.6 3.2 5.3 98 0.1 SSW 7 9 4 5 1024.3 1024.4 0.0
26/11:00pm 4.4 3.1 4.0 97 0.2 CALM 0 0 0 0 1024.2 1024.3 0.0
26/10:30pm 5.0 3.4 4.6 97 0.2 SE 2 6 1 3 1024.4 1024.5 0.0
26/10:00pm 4.7 3.4 4.1 96 0.3 CALM 0 0 0 0 1024.6 1024.7 0.0
26/09:30pm 5.9 3.7 5.3 96 0.3 S 6 9 3 5 1024.6 1024.7 0.0
26/09:00pm 6.9 6.1 6.3 96 0.3 CALM 0 0 0 0 1024.6 1024.7 0.0
26/08:30pm 6.9 6.0 6.2 95 0.3 CALM 0 6 0 3 1024.6 1024.7 0.0
26/08:00pm 7.3 6.5 6.6 95 0.3 CALM 0 0 0 0 1025.0 1025.1 0.0
26/07:30pm 7.3 5.1 6.4 94 0.4 ESE 7 7 4 4 1025.3 1025.4 0.0
26/07:00pm 7.6 6.3 6.1 90 0.7 SE 2 7 1 4 1025.4 1025.5 0.0
26/06:30pm 10.0 9.5 7.9 87 1.0 CALM 0 0 0 0 1025.3 1025.4 0.0
26/06:00pm 10.7 10.1 7.6 81 1.5 CALM 0 0 0 0 1024.9 1025.0 0.0
26/05:30pm 11.5 9.4 8.2 80 1.6 E 9 13 5 7 1024.8 1024.9 0.0
26/05:00pm 12.1 11.4 8.6 79 1.7 NE 2 7 1 4 1025.3 1025.4 0.0
26/04:30pm 13.2 11.7 8.3 72 2.4 NE 6 7 3 4 1025.4 1025.5 0.0
26/04:00pm 13.4 13.1 8.7 73 2.4 CALM 0 0 0 0 1025.7 1025.8 0.0
26/03:30pm 13.8 13.1 8.4 70 2.7 NNE 2 6 1 3 1025.6 1025.7 0.0
26/03:00pm 13.9 11.8 8.1 68 2.9 N 9 13 5 7 1025.6 1025.7 0.0
26/02:30pm 13.9 11.6 7.4 65 3.2 N 9 13 5 7 1026.0 1026.1 0.0
26/02:00pm 14.3 13.8 7.8 65 3.2 CALM 0 0 0 0 1026.2 1026.3 0.0
26/01:30pm 14.2 12.9 7.7 65 3.2 SE 4 7 2 4 1026.6 1026.6 0.0
26/01:00pm 13.9 12.1 7.2 64 3.3 SE 6 9 3 5 1026.8 1026.8 0.0
26/12:30pm 14.2 12.1 6.6 60 3.7 ESE 7 11 4 6 1027.5 1027.6 0.0
26/12:00pm 13.7 11.9 7.0 64 3.2 SE 6 11 3 6 1027.8 1027.9 0.0
26/11:30am 12.6 10.1 6.4 66 3.0 ESE 9 13 5 7 1028.3 1028.4 0.0
26/11:00am 11.1 8.5 6.3 72 2.2 ESE 9 13 5 7 1029.4 1029.5 0.0
26/10:30am 10.1 8.7 5.3 72 2.2 E 2 7 1 4 1029.9 1030.0 0.0
26/10:00am 8.2 6.9 5.8 85 1.1 ENE 2 6 1 3 1030.0 1030.1 0.0
26/09:30am 6.2 4.2 6.1 99 0.0 ESE 6 9 3 5 1030.0 1030.1 0.0
26/09:00am 3.9 2.5 3.8 99 0.0 CALM 0 0 0 0 1030.2 1030.3 0.0
26/08:30am 1.0 -0.8 0.9 99 0.0 CALM 0 0 0 0 1030.3 1030.4 0.0
26/08:00am -0.7 -2.8 -0.8 99 0.0 CALM 0 0 0 0 1030.4 1030.5 0.0
26/07:30am -0.8 -4.1 -0.9 99 0.0 N 6 9 3 5 1030.1 1030.2 0.0
26/07:00am -1.2 -4.1 -1.3 99 0.0 N 4 7 2 4 1029.9 1030.0 0.0
26/06:30am -1.6 -3.8 -1.9 98 0.0 CALM 0 0 0 0 1029.7 1029.8 0.0

Latest Capital City Observations: Canberra | Sydney | Melbourne | Brisbane | Adelaide | Perth | Hobart | Darwin

Other Formats:

Comma delimited format used in spreadsheet applications
http://www.bom.gov.au/fwo/IDV60901/IDV60901.94864.axf

JavaScript Object Notation format (JSON) in row-major order
http://www.bom.gov.au/fwo/IDV60901/IDV60901.94864.json